Time;durP1;ratioP1;P1;durP2;ratioP2;P2;SDS_P1;SDS_P2;PMS_P1;PMS_P2;Temp;Humidity;BMP_temperature;BMP_pressure;BME280_temperature;BME280_humidity;BME280_pressure;Samples;Min_cycle;Max_cycle;Signal;HPM_P1;HPM_P2
2022/04/22 00:00:12;;;;;;;12.48;5.60;;;9.40;80.40;;;;;;5052967;28;20025;-45
2022/04/22 00:02:39;;;;;;;14.52;6.53;;;9.40;80.70;;;;;;5052274;28;20029;-46
2022/04/22 00:05:06;;;;;;;8.80;5.32;;;9.40;80.80;;;;;;5054588;28;20029;-47
2022/04/22 00:07:33;;;;;;;9.73;5.55;;;9.30;80.90;;;;;;5053383;28;20346;-45
2022/04/22 00:10:00;;;;;;;9.07;5.25;;;9.40;81.20;;;;;;5053488;28;20086;-46
2022/04/22 00:12:26;;;;;;;9.90;5.40;;;9.40;81.20;;;;;;5052544;28;20160;-45
2022/04/22 00:14:53;;;;;;;9.73;6.45;;;9.40;81.10;;;;;;5052897;28;20049;-45
2022/04/22 00:17:20;;;;;;;8.57;5.22;;;9.40;81.20;;;;;;5052935;28;20021;-45
2022/04/22 00:19:47;;;;;;;11.90;5.85;;;9.40;80.90;;;;;;5053423;28;20449;-47
2022/04/22 00:22:17;;;;;;;9.77;5.85;;;9.40;81.40;;;;;;5068538;28;20044;-45
2022/04/22 00:24:43;;;;;;;9.25;5.82;;;9.30;81.50;;;;;;5053133;28;20021;-49
2022/04/22 00:27:10;;;;;;;13.65;6.28;;;9.30;81.60;;;;;;5051638;28;20445;-47
2022/04/22 00:29:37;;;;;;;11.98;5.93;;;9.20;81.30;;;;;;5051788;28;20029;-50
2022/04/22 00:32:05;;;;;;;14.82;6.13;;;9.20;81.50;;;;;;5055282;28;20350;-48
2022/04/22 00:34:32;;;;;;;9.88;5.70;;;9.10;81.90;;;;;;5053457;28;20106;-45
2022/04/22 00:36:59;;;;;;;8.05;5.18;;;9.10;81.40;;;;;;5051119;28;20033;-47
2022/04/22 00:39:28;;;;;;;9.60;5.25;;;9.00;80.90;;;;;;5055193;28;20035;-46
2022/04/22 00:41:54;;;;;;;11.52;4.85;;;8.90;80.90;;;;;;5051954;28;20036;-45
2022/04/22 00:44:21;;;;;;;11.25;6.10;;;8.90;80.70;;;;;;5052313;28;20082;-47
2022/04/22 00:46:48;;;;;;;9.20;4.80;;;8.90;80.70;;;;;;5051952;28;20040;-45
2022/04/22 00:49:14;;;;;;;11.57;5.40;;;8.90;80.80;;;;;;5084766;28;20373;-47
2022/04/22 00:51:44;;;;;;;14.18;4.93;;;8.90;80.70;;;;;;5051382;28;20029;-47
2022/04/22 00:54:10;;;;;;;7.55;4.57;;;8.90;79.80;;;;;;5052481;28;20079;-46
2022/04/22 00:56:35;;;;;;;7.32;4.40;;;8.90;79.70;;;;;;5051718;28;20621;-45
2022/04/22 00:59:02;;;;;;;8.90;4.70;;;8.90;79.40;;;;;;5051549;28;20025;-45
2022/04/22 01:01:29;;;;;;;9.90;3.75;;;8.80;78.70;;;;;;5050983;28;20028;-45
2022/04/22 01:12:11;;;;;;;10.20;4.05;;;8.70;77.80;;;;;;5052203;28;20076;-46
2022/04/22 01:14:37;;;;;;;6.25;3.55;;;8.70;77.30;;;;;;5051687;28;20057;-45
2022/04/22 01:17:05;;;;;;;10.68;3.95;;;8.70;77.40;;;;;;5051807;28;20060;-48
2022/04/22 01:19:32;;;;;;;9.85;3.55;;;8.70;77.30;;;;;;5051886;28;20135;-45
2022/04/22 01:22:01;;;;;;;8.50;3.67;;;8.70;77.60;;;;;;5051246;28;20033;-46
2022/04/22 01:24:29;;;;;;;6.90;3.70;;;8.70;77.90;;;;;;5051751;28;20561;-44
2022/04/22 01:26:57;;;;;;;10.25;3.72;;;8.60;77.60;;;;;;5051888;28;20037;-45
2022/04/22 01:29:25;;;;;;;6.20;3.20;;;8.60;77.90;;;;;;5050577;28;20033;-46
2022/04/22 01:31:52;;;;;;;7.50;3.35;;;8.50;77.80;;;;;;5050994;28;20044;-44
2022/04/22 01:34:19;;;;;;;5.43;3.30;;;8.50;78.20;;;;;;5052448;28;20068;-47
2022/04/22 01:36:46;;;;;;;10.10;3.67;;;8.50;78.20;;;;;;5051920;28;20032;-47
2022/04/22 01:39:12;;;;;;;6.38;3.08;;;8.50;78.10;;;;;;5052626;28;20090;-46
2022/04/22 01:41:42;;;;;;;7.57;4.07;;;8.60;78.00;;;;;;5053334;28;20032;-46
2022/04/22 01:44:09;;;;;;;6.32;3.65;;;8.50;77.90;;;;;;5052100;28;20040;-46
2022/04/22 01:46:36;;;;;;;5.78;3.88;;;8.50;77.90;;;;;;5050587;28;20464;-46
2022/04/22 01:49:03;;;;;;;8.88;3.85;;;8.40;78.00;;;;;;5052101;28;20864;-46
2022/04/22 01:51:30;;;;;;;6.28;3.80;;;8.40;78.30;;;;;;5051320;28;20025;-46
2022/04/22 01:53:57;;;;;;;6.78;3.55;;;8.40;78.60;;;;;;5052097;28;20029;-47
2022/04/22 01:56:23;;;;;;;5.40;3.22;;;8.40;78.50;;;;;;5053290;28;20357;-50
2022/04/22 01:58:49;;;;;;;6.57;3.13;;;8.40;78.30;;;;;;5055666;28;20342;-46
2022/04/22 02:01:16;;;;;;;9.05;3.90;;;8.40;78.10;;;;;;5054937;28;20036;-47
2022/04/22 02:03:46;;;;;;;5.85;3.75;;;8.40;78.30;;;;;;5056202;28;20021;-45
2022/04/22 02:06:13;;;;;;;9.15;3.15;;;8.40;78.70;;;;;;5054983;28;20096;-46
2022/04/22 02:08:42;;;;;;;7.13;2.95;;;8.40;78.30;;;;;;5054219;28;20060;-45
2022/04/22 02:11:08;;;;;;;12.02;4.35;;;8.40;78.20;;;;;;5054012;28;20032;-45
2022/04/22 02:13:36;;;;;;;5.80;3.15;;;8.30;78.30;;;;;;5055448;28;20044;-49
2022/04/22 02:16:09;;;;;;;5.18;2.70;;;8.30;78.40;;;;;;5055442;28;20024;-46
2022/04/22 02:18:39;;;;;;;9.30;3.17;;;8.40;78.50;;;;;;5054753;28;20033;-47
2022/04/22 02:21:07;;;;;;;5.00;2.55;;;8.40;78.80;;;;;;5038111;28;20107;-46
2022/04/22 02:23:34;;;;;;;4.35;2.50;;;8.40;78.50;;;;;;5054480;28;20052;-45
2022/04/22 02:26:01;;;;;;;8.50;3.20;;;8.40;78.30;;;;;;5054721;28;20051;-46
2022/04/22 02:28:31;;;;;;;6.53;3.20;;;8.40;78.30;;;;;;5054213;28;20086;-46
2022/04/22 02:31:00;;;;;;;6.53;2.92;;;8.50;78.10;;;;;;5040517;28;20114;-45
2022/04/22 02:33:27;;;;;;;7.10;2.92;;;8.50;78.30;;;;;;5055207;28;20357;-47
2022/04/22 02:35:54;;;;;;;7.18;3.13;;;8.50;78.50;;;;;;5037267;28;20025;-45
2022/04/22 02:38:21;;;;;;;5.43;2.35;;;8.40;78.50;;;;;;5057207;28;20583;-45
2022/04/22 02:46:18;;;;;;;7.38;2.53;;;8.50;77.40;;;;;;5055146;28;20143;-46
2022/04/22 02:48:44;;;;;;;4.10;2.33;;;8.50;77.20;;;;;;5053780;28;20128;-46
2022/04/22 02:51:10;;;;;;;6.85;2.78;;;8.50;77.30;;;;;;5053019;28;20406;-49
2022/04/22 02:53:36;;;;;;;9.23;2.47;;;8.50;77.10;;;;;;5055056;28;20104;-46
2022/04/22 02:56:04;;;;;;;6.13;2.50;;;8.60;77.40;;;;;;5053649;28;20029;-48
2022/04/22 02:58:31;;;;;;;5.45;2.47;;;8.50;77.50;;;;;;5055898;28;20163;-47
2022/04/22 03:00:58;;;;;;;4.75;2.10;;;8.60;77.50;;;;;;5054262;28;20364;-52
2022/04/22 03:03:26;;;;;;;5.20;3.20;;;8.60;77.10;;;;;;5054354;28;20036;-45
2022/04/22 03:05:52;;;;;;;6.60;2.63;;;8.60;77.10;;;;;;5053684;28;20032;-46
2022/04/22 03:08:19;;;;;;;8.02;2.50;;;8.60;76.80;;;;;;5040562;28;20033;-48
2022/04/22 03:10:48;;;;;;;7.03;2.95;;;8.60;76.40;;;;;;5044370;28;20110;-51
2022/04/22 03:13:15;;;;;;;5.30;2.42;;;8.60;75.60;;;;;;5054539;28;20045;-46
2022/04/22 03:15:43;;;;;;;7.25;3.92;;;8.60;75.70;;;;;;5053119;28;20353;-46
2022/04/22 03:18:10;;;;;;;5.43;2.47;;;8.50;76.10;;;;;;5052515;28;20025;-46
2022/04/22 03:20:37;;;;;;;7.00;2.75;;;8.60;76.50;;;;;;5051162;28;20102;-46
2022/04/22 03:23:04;;;;;;;6.18;3.10;;;8.50;76.80;;;;;;5056912;28;20361;-47
2022/04/22 03:25:31;;;;;;;8.98;3.03;;;8.50;77.20;;;;;;5052997;28;20436;-45
2022/04/22 03:27:57;;;;;;;6.13;2.65;;;8.40;77.30;;;;;;5054678;28;20404;-46
2022/04/22 03:30:25;;;;;;;6.50;2.67;;;8.40;77.10;;;;;;5054016;28;20025;-48
2022/04/22 03:32:52;;;;;;;5.22;2.55;;;8.40;77.30;;;;;;5053950;28;20029;-46
2022/04/22 03:35:20;;;;;;;4.72;2.67;;;8.40;77.90;;;;;;5053693;28;20044;-45
2022/04/22 03:37:46;;;;;;;7.43;2.90;;;8.40;78.10;;;;;;5056597;28;20624;-46
2022/04/22 03:40:16;;;;;;;6.15;2.40;;;8.40;78.40;;;;;;5052410;28;20457;-45
2022/04/22 03:42:43;;;;;;;8.40;2.88;;;8.40;78.20;;;;;;5053820;28;20113;-45
2022/04/22 03:45:12;;;;;;;5.80;2.35;;;8.40;77.90;;;;;;5047709;28;20038;-46
2022/04/22 03:47:39;;;;;;;7.47;1.77;;;8.30;77.80;;;;;;5033452;28;20103;-46
2022/04/22 03:50:06;;;;;;;5.35;2.50;;;8.40;77.70;;;;;;5042319;28;20048;-48
2022/04/22 03:52:33;;;;;;;4.70;2.58;;;8.40;77.20;;;;;;5064840;28;20013;-48
2022/04/22 03:54:59;;;;;;;8.38;2.53;;;8.40;77.30;;;;;;5085854;28;20021;-48
2022/04/22 04:00:12;;;;;;;5.07;2.28;;;8.40;77.60;;;;;;5036687;28;20169;-47
2022/04/22 04:02:38;;;;;;;6.80;3.40;;;8.30;77.70;;;;;;5052600;28;20424;-47
2022/04/22 04:05:05;;;;;;;6.50;2.88;;;8.30;77.80;;;;;;5052444;28;20036;-49
2022/04/22 04:07:35;;;;;;;4.38;2.33;;;8.40;77.50;;;;;;5052035;28;20067;-45
2022/04/22 04:18:24;;;;;;;6.43;3.55;;;8.40;77.40;;;;;;5053569;28;20028;-45
2022/04/22 04:23:37;;;;;;;11.63;3.00;;;8.40;77.90;;;;;;5052452;28;20094;-45
2022/04/22 04:26:04;;;;;;;5.70;2.97;;;8.40;77.90;;;;;;5051856;28;20171;-48
2022/04/22 04:28:32;;;;;;;6.10;2.72;;;8.40;77.80;;;;;;5052683;28;20021;-46
2022/04/22 04:30:59;;;;;;;7.20;3.08;;;8.30;77.90;;;;;;5052749;28;20025;-46
2022/04/22 04:33:25;;;;;;;6.53;2.67;;;8.30;78.00;;;;;;5052019;28;20090;-46
2022/04/22 04:35:52;;;;;;;5.57;2.60;;;8.40;77.70;;;;;;5051613;28;20025;-45
2022/04/22 04:38:20;;;;;;;8.90;2.88;;;8.40;77.30;;;;;;5052130;28;20021;-46
2022/04/22 04:40:47;;;;;;;5.85;2.42;;;8.50;77.50;;;;;;5052560;28;20031;-45
2022/04/22 04:43:14;;;;;;;5.57;3.60;;;8.50;77.90;;;;;;5052481;28;20021;-46
2022/04/22 04:45:41;;;;;;;7.43;3.30;;;8.40;77.50;;;;;;5052606;28;20021;-47
2022/04/22 04:48:07;;;;;;;7.55;2.70;;;8.40;77.60;;;;;;5052420;28;20367;-46
2022/04/22 04:50:34;;;;;;;7.40;2.72;;;8.40;77.80;;;;;;5051279;28;20060;-45
2022/04/22 04:53:00;;;;;;;9.32;3.15;;;8.40;77.70;;;;;;5052226;28;20025;-51
2022/04/22 04:55:26;;;;;;;6.13;2.80;;;8.40;77.60;;;;;;5051634;28;20043;-47
2022/04/22 04:57:53;;;;;;;10.27;2.88;;;8.40;77.70;;;;;;5052865;28;20028;-47
2022/04/22 05:00:20;;;;;;;7.80;3.05;;;8.50;78.00;;;;;;5034088;28;20040;-46
2022/04/22 05:02:50;;;;;;;10.35;3.67;;;8.50;78.00;;;;;;5051168;28;20112;-48
2022/04/22 05:05:17;;;;;;;8.90;3.13;;;8.50;77.20;;;;;;5052093;28;20033;-46
2022/04/22 05:07:56;;;;;;;7.15;2.75;;;8.60;77.10;;;;;;5050930;28;20052;-48
2022/04/22 05:10:26;;;;;;;6.23;2.77;;;8.70;76.90;;;;;;5050784;28;20033;-46
2022/04/22 05:12:52;;;;;;;10.38;2.80;;;8.90;76.30;;;;;;5052218;28;20099;-46
2022/04/22 05:15:23;;;;;;;8.18;2.38;;;8.90;76.10;;;;;;5066582;28;20025;-50
2022/04/22 05:17:51;;;;;;;9.15;3.42;;;8.90;76.30;;;;;;5050419;28;20033;-51
2022/04/22 05:20:20;;;;;;;8.48;3.03;;;9.00;75.60;;;;;;5051510;28;20052;-50
2022/04/22 05:22:46;;;;;;;6.25;2.83;;;9.20;75.40;;;;;;5052251;28;20032;-47
2022/04/22 05:25:14;;;;;;;7.80;3.47;;;9.30;75.10;;;;;;5051083;28;20103;-44
2022/04/22 05:27:40;;;;;;;4.05;2.60;;;9.30;75.50;;;;;;5050647;28;20029;-46
2022/04/22 05:32:53;;;;;;;7.38;3.00;;;9.30;75.90;;;;;;5053880;28;20047;-46
2022/04/22 05:35:27;;;;;;;9.43;3.00;;;9.20;76.40;;;;;;5054575;28;20052;-47
2022/04/22 05:38:12;;;;;;;7.97;2.42;;;9.30;76.20;;;;;;5058747;28;20082;-45
2022/04/22 05:40:39;;;;;;;10.00;3.00;;;9.40;76.50;;;;;;5056868;28;20085;-45
2022/04/22 05:43:07;;;;;;;6.72;2.55;;;9.40;76.20;;;;;;5053470;28;20357;-46
2022/04/22 05:45:36;;;;;;;5.85;2.72;;;9.40;76.70;;;;;;5051115;28;20033;-46
2022/04/22 05:48:02;;;;;;;7.25;3.17;;;9.40;76.50;;;;;;5054583;28;20029;-48
2022/04/22 05:50:29;;;;;;;6.22;2.72;;;9.50;76.50;;;;;;5054899;28;20809;-49
2022/04/22 05:52:55;;;;;;;7.57;2.78;;;9.60;76.40;;;;;;5054396;28;20037;-46
2022/04/22 05:55:27;;;;;;;7.85;4.35;;;9.50;75.90;;;;;;5053193;28;20044;-46
2022/04/22 05:57:55;;;;;;;8.77;3.03;;;9.60;75.50;;;;;;5051618;28;20106;-45
2022/04/22 06:00:24;;;;;;;6.90;2.70;;;9.70;75.50;;;;;;5054564;28;20029;-46
2022/04/22 06:02:52;;;;;;;5.95;3.25;;;9.60;75.10;;;;;;5053974;28;20319;-46
2022/04/22 06:05:20;;;;;;;8.35;3.13;;;9.80;75.60;;;;;;5052314;28;20339;-47
2022/04/22 06:07:48;;;;;;;6.05;2.58;;;9.80;75.00;;;;;;5055129;28;20025;-47
2022/04/22 06:10:32;;;;;;;9.77;3.15;;;9.80;74.20;;;;;;5054921;28;20472;-48
2022/04/22 06:13:02;;;;;;;5.95;3.55;;;9.90;73.70;;;;;;5052482;28;20029;-45
2022/04/22 06:15:29;;;;;;;;;;;9.90;74.40;;;;;;5053806;28;20029;-46
2022/04/22 06:17:57;;;;;;;4.75;2.50;;;9.90;74.10;;;;;;5053988;28;19909;-45
2022/04/22 06:20:26;;;;;;;7.57;2.90;;;9.90;74.50;;;;;;5054535;28;20021;-50
2022/04/22 06:22:53;;;;;;;7.28;3.00;;;9.80;74.90;;;;;;5054955;28;20033;-50
2022/04/22 06:25:19;;;;;;;7.35;3.15;;;9.90;75.30;;;;;;5054977;28;20606;-47
2022/04/22 06:27:46;;;;;;;4.70;2.95;;;9.90;74.70;;;;;;5053711;28;20369;-46
2022/04/22 06:30:30;;;;;;;5.32;2.67;;;9.90;74.60;;;;;;5053626;28;20037;-45
2022/04/22 06:33:03;;;;;;;13.70;4.93;;;9.90;74.20;;;;;;5052443;28;20096;-47
2022/04/22 06:35:32;;;;;;;10.00;4.07;;;9.90;74.40;;;;;;5053581;28;20047;-46
2022/04/22 06:38:01;;;;;;;6.63;2.92;;;10.00;74.80;;;;;;5039978;28;20024;-47
2022/04/22 06:45:59;;;;;;;8.70;3.25;;;10.10;74.40;;;;;;5051924;28;20043;-46
2022/04/22 06:48:34;;;;;;;8.40;3.28;;;10.10;74.30;;;;;;5053721;28;20438;-46
2022/04/22 06:51:03;;;;;;;10.85;3.05;;;10.10;73.60;;;;;;5050783;28;20426;-51
2022/04/22 06:53:29;;;;;;;4.95;2.65;;;10.10;74.50;;;;;;5053277;28;20083;-47
2022/04/22 06:55:58;;;;;;;5.28;3.00;;;10.20;74.40;;;;;;5052951;28;20685;-48
2022/04/22 06:58:26;;;;;;;4.75;3.40;;;10.30;74.70;;;;;;5050280;28;20039;-49
2022/04/22 07:00:53;;;;;;;5.63;3.25;;;10.30;74.80;;;;;;5052977;28;20025;-48
2022/04/22 07:03:20;;;;;;;5.80;2.55;;;10.20;73.90;;;;;;5053929;28;20040;-49
2022/04/22 07:05:49;;;;;;;8.43;2.92;;;10.20;73.80;;;;;;5053918;28;20658;-49
2022/04/22 07:08:18;;;;;;;7.18;3.05;;;10.20;73.40;;;;;;5054146;28;20094;-46
2022/04/22 07:10:48;;;;;;;5.25;3.05;;;10.30;73.60;;;;;;5052816;28;20123;-49
2022/04/22 07:13:18;;;;;;;7.25;2.38;;;10.30;73.80;;;;;;5053865;28;20040;-46
2022/04/22 07:15:46;;;;;;;9.52;4.28;;;10.40;74.30;;;;;;5053899;28;20032;-45
2022/04/22 07:18:17;;;;;;;7.97;3.22;;;10.40;73.60;;;;;;5051252;28;20056;-46
2022/04/22 07:20:46;;;;;;;4.97;2.85;;;10.30;74.80;;;;;;5052435;28;20032;-45
2022/04/22 07:23:14;;;;;;;8.07;2.90;;;10.20;74.80;;;;;;5056527;28;20029;-46
2022/04/22 07:25:44;;;;;;;5.53;2.95;;;10.40;75.20;;;;;;5052996;28;20031;-46
2022/04/22 07:28:12;;;;;;;7.95;3.45;;;10.50;74.50;;;;;;5053572;28;20082;-48
2022/04/22 07:30:39;;;;;;;9.38;3.17;;;10.60;74.20;;;;;;5048565;28;20021;-47
2022/04/22 07:33:13;;;;;;;6.75;3.28;;;10.70;73.60;;;;;;5033620;28;20169;-48
2022/04/22 07:35:40;;;;;;;6.55;3.25;;;10.80;72.90;;;;;;5041080;28;20035;-49
2022/04/22 07:38:12;;;;;;;7.72;3.05;;;10.90;73.10;;;;;;5055741;28;20102;-46
2022/04/22 07:40:40;;;;;;;5.90;2.85;;;10.90;72.90;;;;;;5052420;28;20512;-46
2022/04/22 07:48:36;;;;;;;5.07;2.90;;;11.60;71.30;;;;;;5052979;28;20044;-49
2022/04/22 07:51:03;;;;;;;27.60;3.72;;;12.00;70.10;;;;;;5052576;28;20025;-50
2022/04/22 07:53:30;;;;;;;6.35;3.28;;;12.40;69.20;;;;;;5051826;28;20032;-47
2022/04/22 07:55:57;;;;;;;4.97;3.08;;;12.80;68.10;;;;;;5052474;28;20035;-48
2022/04/22 07:58:24;;;;;;;10.95;2.85;;;13.30;66.90;;;;;;5053330;28;20354;-46
2022/04/22 08:00:51;;;;;;;6.13;3.33;;;13.50;66.00;;;;;;5050989;28;20432;-46
2022/04/22 08:03:20;;;;;;;5.90;2.72;;;13.70;65.20;;;;;;5051611;28;20021;-49
2022/04/22 08:05:46;;;;;;;5.85;2.63;;;13.80;64.50;;;;;;5051382;28;20025;-44
2022/04/22 08:08:12;;;;;;;6.45;2.78;;;13.80;64.40;;;;;;5052748;28;20468;-47
2022/04/22 08:10:40;;;;;;;5.28;2.80;;;13.90;64.00;;;;;;5030781;28;20021;-48
2022/04/22 08:13:07;;;;;;;4.90;2.60;;;14.00;63.80;;;;;;5046222;28;20032;-47
2022/04/22 08:15:34;;;;;;;7.70;2.92;;;14.10;61.90;;;;;;5051803;28;20031;-47
2022/04/22 08:18:04;;;;;;;6.35;2.72;;;14.10;62.10;;;;;;5052508;28;20037;-45
2022/04/22 08:20:33;;;;;;;6.03;2.55;;;14.30;60.80;;;;;;5047859;28;20044;-48
2022/04/22 08:23:00;;;;;;;8.57;2.47;;;14.60;61.90;;;;;;5051671;28;20474;-47
2022/04/22 08:25:29;;;;;;;5.90;2.63;;;14.80;60.70;;;;;;5051592;28;20112;-48
2022/04/22 08:27:57;;;;;;;3.97;2.45;;;15.00;60.00;;;;;;5050916;28;20043;-47
2022/04/22 08:30:22;;;;;;;6.75;3.22;;;15.20;59.40;;;;;;5051258;28;20037;-49
2022/04/22 08:32:48;;;;;;;4.07;2.70;;;15.30;59.20;;;;;;5051562;28;20040;-45
2022/04/22 08:35:15;;;;;;;6.32;2.72;;;15.50;58.50;;;;;;5052679;28;20094;-47
2022/04/22 08:37:44;;;;;;;5.70;2.60;;;15.20;59.00;;;;;;5055022;28;20032;-50
2022/04/22 08:40:15;;;;;;;3.88;2.42;;;15.30;58.80;;;;;;5051687;28;20369;-48
2022/04/22 08:42:44;;;;;;;5.50;2.60;;;15.40;58.40;;;;;;5034202;28;20049;-46
2022/04/22 08:45:13;;;;;;;9.20;2.90;;;15.40;56.80;;;;;;5044587;28;20104;-48
2022/04/22 08:50:30;;;;;;;5.72;3.00;;;15.30;58.50;;;;;;5049741;28;20051;-47
2022/04/22 08:53:20;;;;;;;5.50;2.95;;;15.30;59.20;;;;;;5080702;28;20029;-49
2022/04/22 08:55:49;;;;;;;7.70;3.10;;;15.40;58.20;;;;;;5049932;28;20021;-48
2022/04/22 08:58:23;;;;;;;6.82;3.05;;;15.40;60.50;;;;;;5049436;28;20429;-50
2022/04/22 09:00:51;;;;;;;5.50;3.08;;;15.40;61.70;;;;;;5044109;28;20694;-49
2022/04/22 09:03:18;;;;;;;5.50;2.78;;;15.60;59.40;;;;;;5052516;28;20040;-45
2022/04/22 09:05:45;;;;;;;4.93;3.20;;;15.60;58.50;;;;;;5051705;28;20025;-45
2022/04/22 09:08:13;;;;;;;5.55;3.10;;;15.60;58.70;;;;;;5055739;28;20021;-46
2022/04/22 09:10:42;;;;;;;6.75;2.85;;;15.60;56.90;;;;;;5055724;28;20044;-45
2022/04/22 09:13:12;;;;;;;4.40;2.80;;;15.80;58.60;;;;;;5055367;28;20032;-46
2022/04/22 09:15:39;;;;;;;;;;;15.70;57.50;;;;;;5052792;28;20040;-47
2022/04/22 09:18:15;;;;;;;4.70;2.65;;;15.80;58.30;;;;;;5054053;28;19940;-47
2022/04/22 09:20:42;;;;;;;5.00;2.42;;;15.90;58.90;;;;;;5053751;28;20040;-46
2022/04/22 09:23:46;;;;;;;5.82;2.97;;;15.90;58.90;;;;;;5054766;28;20043;-47
2022/04/22 09:26:33;;;;;;;11.18;2.88;;;15.90;59.10;;;;;;5052893;28;20115;-45
2022/04/22 09:29:03;;;;;;;3.65;2.47;;;16.00;58.80;;;;;;5054776;28;20029;-48
2022/04/22 09:31:44;;;;;;;9.10;2.45;;;16.00;59.20;;;;;;5054627;28;20053;-46
2022/04/22 09:34:11;;;;;;;10.20;3.15;;;16.20;57.90;;;;;;5054427;28;20059;-50
2022/04/22 09:45:00;;;;;;;8.27;3.20;;;16.10;57.00;;;;;;5052019;28;20526;-47
2022/04/22 09:47:29;;;;;;;5.13;2.50;;;16.60;57.70;;;;;;5052982;28;20118;-47
2022/04/22 09:49:57;;;;;;;7.70;3.33;;;16.60;55.60;;;;;;5052293;28;20052;-45
2022/04/22 09:52:31;;;;;;;6.82;3.03;;;16.70;53.90;;;;;;5052555;28;20171;-48
2022/04/22 09:55:16;;;;;;;3.40;2.53;;;16.40;56.80;;;;;;5052687;28;20353;-47
2022/04/22 09:58:00;;;;;;;6.15;2.72;;;16.50;56.40;;;;;;5051766;28;20124;-49
2022/04/22 10:00:30;;;;;;;4.10;2.60;;;16.70;55.80;;;;;;5060996;28;20028;-48
2022/04/22 10:02:58;;;;;;;8.15;3.60;;;16.70;56.10;;;;;;5059445;28;20458;-48
2022/04/22 10:05:31;;;;;;;5.88;3.17;;;16.90;55.20;;;;;;5053847;28;20052;-51
2022/04/22 10:08:02;;;;;;;8.00;4.05;;;17.00;55.40;;;;;;5054160;28;20776;-46
2022/04/22 10:10:38;;;;;;;5.70;3.30;;;17.00;54.50;;;;;;5054562;28;20116;-49
2022/04/22 10:13:12;;;;;;;10.27;3.42;;;16.80;55.30;;;;;;5052537;28;20365;-46
2022/04/22 10:15:44;;;;;;;9.45;3.33;;;16.80;54.60;;;;;;5086211;28;20142;-46
2022/04/22 10:18:13;;;;;;;4.72;3.05;;;16.70;54.40;;;;;;5053168;28;20036;-47
2022/04/22 10:20:41;;;;;;;6.45;3.20;;;16.80;53.60;;;;;;5054819;28;20045;-46
2022/04/22 10:23:09;;;;;;;6.65;3.55;;;16.80;54.10;;;;;;5054422;28;20033;-46
2022/04/22 10:25:36;;;;;;;6.20;3.25;;;17.00;54.40;;;;;;5053721;28;20095;-48
2022/04/22 10:28:06;;;;;;;8.95;3.60;;;17.10;53.80;;;;;;5054821;28;20107;-46
2022/04/22 10:30:33;;;;;;;7.85;3.30;;;17.00;53.50;;;;;;5054194;28;20037;-46
2022/04/22 10:32:59;;;;;;;7.70;3.15;;;17.10;55.50;;;;;;5053003;28;20036;-47
2022/04/22 10:35:26;;;;;;;5.05;3.60;;;17.40;55.40;;;;;;5053462;28;20025;-49
2022/04/22 10:37:54;;;;;;;14.52;4.70;;;17.40;53.50;;;;;;5053261;28;20021;-49
2022/04/22 10:40:26;;;;;;;8.55;3.17;;;17.60;55.40;;;;;;5054969;28;20441;-46
2022/04/22 10:42:58;;;;;;;9.80;3.53;;;17.50;53.30;;;;;;5039048;28;20106;-48
2022/04/22 10:48:29;;;;;;;10.77;3.70;;;17.40;54.70;;;;;;5048729;28;20094;-49
2022/04/22 10:51:14;;;;;;;6.80;3.47;;;17.00;54.80;;;;;;5054596;28;20044;-47
2022/04/22 10:53:46;;;;;;;7.05;3.88;;;17.10;56.30;;;;;;5053971;28;20036;-47
2022/04/22 10:56:30;;;;;;;8.85;4.30;;;17.10;57.60;;;;;;5054249;28;20029;-45
2022/04/22 10:59:20;;;;;;;7.03;3.70;;;17.00;54.80;;;;;;5054314;28;20178;-48
2022/04/22 11:01:48;;;;;;;9.27;4.00;;;17.10;55.30;;;;;;5052631;28;20065;-47
2022/04/22 11:04:26;;;;;;;8.95;3.55;;;17.30;56.60;;;;;;5069286;28;20415;-46
2022/04/22 11:06:56;;;;;;;7.25;3.33;;;17.50;56.10;;;;;;5052796;28;20033;-48
2022/04/22 11:09:43;;;;;;;5.72;3.33;;;17.70;56.50;;;;;;5050648;28;20029;-51
2022/04/22 11:12:31;;;;;;;11.95;4.00;;;17.70;55.50;;;;;;5051512;28;20086;-47
2022/04/22 11:14:58;;;;;;;7.03;3.40;;;17.90;56.10;;;;;;5053211;28;20029;-47
2022/04/22 11:17:33;;;;;;;7.95;3.97;;;17.70;55.10;;;;;;5051971;28;20075;-49
2022/04/22 11:20:00;;;;;;;8.68;4.18;;;17.90;56.40;;;;;;5054608;28;20386;-49
2022/04/22 11:22:59;;;;;;;7.93;4.10;;;17.90;56.20;;;;;;5053666;28;20037;-49
2022/04/22 11:25:29;;;;;;;9.70;4.40;;;17.90;55.70;;;;;;5018776;28;20068;-47
2022/04/22 11:27:58;;;;;;;13.95;5.05;;;17.80;54.90;;;;;;5052548;28;20070;-46
2022/04/22 11:30:29;;;;;;;7.93;3.85;;;17.90;55.00;;;;;;5054490;28;20446;-48
2022/04/22 11:33:16;;;;;;;9.73;4.07;;;17.70;55.20;;;;;;5034879;28;20040;-52
2022/04/22 11:35:43;;;;;;;6.53;3.53;;;17.80;55.50;;;;;;5052947;28;20032;-46
2022/04/22 11:38:11;;;;;;;6.10;4.35;;;17.80;55.10;;;;;;5055913;28;20044;-46
2022/04/22 11:40:39;;;;;;;10.43;4.18;;;17.90;55.50;;;;;;5049995;28;20461;-49
2022/04/22 11:43:08;;;;;;;7.13;4.10;;;17.90;56.70;;;;;;5053014;28;20116;-46
2022/04/22 11:45:43;;;;;;;5.75;3.30;;;17.90;56.70;;;;;;5052984;28;20051;-46
2022/04/22 11:48:10;;;;;;;7.85;4.13;;;17.90;57.30;;;;;;5054224;28;20048;-46
2022/04/22 11:50:47;;;;;;;9.43;4.13;;;17.80;56.80;;;;;;5072426;28;20033;-47
2022/04/22 11:53:19;;;;;;;9.80;4.00;;;17.90;55.10;;;;;;5071423;28;20024;-45
2022/04/22 11:55:47;;;;;;;13.00;4.97;;;17.80;54.20;;;;;;5063002;28;20851;-49
2022/04/22 11:58:28;;;;;;;12.23;4.53;;;17.70;55.50;;;;;;5054432;28;20365;-45
2022/04/22 12:06:26;;;;;;;7.38;4.13;;;18.00;54.90;;;;;;5071779;28;20086;-46
2022/04/22 12:09:02;;;;;;;11.35;3.92;;;18.00;53.40;;;;;;5071937;28;20036;-48
2022/04/22 12:11:37;;;;;;;11.93;4.28;;;18.00;53.90;;;;;;5069063;28;20028;-47
2022/04/22 12:14:03;;;;;;;10.20;4.30;;;18.10;53.70;;;;;;5070671;28;20032;-47
2022/04/22 12:16:29;;;;;;;8.23;5.20;;;18.00;53.80;;;;;;5071305;28;20024;-46
2022/04/22 12:18:56;;;;;;;8.35;4.47;;;17.90;55.50;;;;;;5071210;28;20029;-47
2022/04/22 12:21:27;;;;;;;7.53;4.50;;;17.90;55.90;;;;;;5070925;28;20054;-47
2022/04/22 12:24:02;;;;;;;7.72;4.97;;;17.90;55.40;;;;;;5070253;28;20541;-46
2022/04/22 12:26:34;;;;;;;10.93;4.68;;;18.00;55.50;;;;;;5070305;28;20142;-46
2022/04/22 12:29:12;;;;;;;10.68;4.70;;;18.00;56.10;;;;;;5071806;28;20032;-45
2022/04/22 12:31:47;;;;;;;7.20;4.75;;;17.90;57.70;;;;;;5054546;28;20040;-47
2022/04/22 12:34:26;;;;;;;9.65;4.53;;;17.90;57.70;;;;;;5051422;28;20031;-47
2022/04/22 12:37:13;;;;;;;11.68;4.22;;;17.90;56.90;;;;;;5058453;28;20342;-46
2022/04/22 12:39:43;;;;;;;6.55;4.35;;;18.10;57.50;;;;;;5033319;28;20030;-49
2022/04/22 12:42:18;;;;;;;11.98;4.45;;;18.00;56.60;;;;;;5049636;28;20068;-48
2022/04/22 12:53:33;;;;;;;9.77;4.00;;;17.90;57.40;;;;;;5051045;28;20063;-45
2022/04/22 12:56:07;;;;;;;8.63;3.90;;;17.60;56.50;;;;;;5026326;28;20048;-47
2022/04/22 12:58:33;;;;;;;13.43;4.20;;;17.40;55.00;;;;;;5043455;28;20025;-49
2022/04/22 13:01:02;;;;;;;19.75;4.85;;;17.10;57.30;;;;;;5011247;28;20357;-44
2022/04/22 13:03:37;;;;;;;11.00;4.37;;;17.20;56.50;;;;;;5033812;28;20022;-45
2022/04/22 13:06:05;;;;;;;9.65;3.95;;;17.10;58.60;;;;;;5031373;28;20618;-48
2022/04/22 13:08:32;;;;;;;10.18;4.63;;;17.10;59.70;;;;;;5031715;28;20014;-45
2022/04/22 13:11:00;;;;;;;6.35;3.33;;;17.00;59.90;;;;;;5040376;28;20029;-46
2022/04/22 13:13:27;;;;;;;11.55;5.05;;;16.90;61.20;;;;;;5031907;28;20051;-47
2022/04/22 13:15:59;;;;;;;11.63;4.63;;;16.60;60.10;;;;;;5033146;28;20030;-45
2022/04/22 13:18:27;;;;;;;9.98;4.10;;;16.60;60.70;;;;;;5039858;28;20048;-48
2022/04/22 13:20:54;;;;;;;10.48;4.00;;;16.50;60.10;;;;;;5049514;28;20021;-47
2022/04/22 13:23:21;;;;;;;13.48;4.30;;;16.30;60.50;;;;;;5049340;28;20025;-45
2022/04/22 13:25:48;;;;;;;9.93;5.07;;;16.20;61.20;;;;;;5035614;28;20029;-45
2022/04/22 13:28:15;;;;;;;9.90;4.50;;;16.10;61.40;;;;;;5029906;28;20710;-47
2022/04/22 13:30:41;;;;;;;8.02;4.45;;;16.20;61.10;;;;;;5013723;28;20123;-48
2022/04/22 13:33:08;;;;;;;8.00;4.47;;;16.40;61.80;;;;;;5032677;28;20393;-50
2022/04/22 13:35:35;;;;;;;9.85;4.82;;;16.40;60.40;;;;;;5048725;28;20453;-45
2022/04/22 13:38:02;;;;;;;9.13;4.47;;;16.30;61.10;;;;;;5037560;28;20033;-46
2022/04/22 13:40:29;;;;;;;8.02;4.55;;;16.20;61.40;;;;;;5044479;28;20119;-46
2022/04/22 13:42:55;;;;;;;13.25;5.60;;;16.20;62.00;;;;;;5019836;28;20039;-47
2022/04/22 13:53:35;;;;;;;13.43;5.43;;;16.10;63.40;;;;;;5026840;28;20033;-52
2022/04/22 13:56:00;;;;;;;10.65;6.13;;;16.00;63.40;;;;;;5033998;28;20100;-49
2022/04/22 13:58:27;;;;;;;16.05;5.25;;;16.00;63.00;;;;;;5047121;28;20490;-50
2022/04/22 14:00:54;;;;;;;11.07;6.18;;;15.90;63.90;;;;;;5053228;28;20041;-47
2022/04/22 14:03:21;;;;;;;9.43;4.97;;;15.80;64.20;;;;;;5039336;28;20476;-46
2022/04/22 14:05:48;;;;;;;10.60;5.43;;;15.80;63.10;;;;;;5055129;28;20025;-50
2022/04/22 14:08:16;;;;;;;11.68;5.55;;;16.00;63.50;;;;;;5053624;28;20036;-46
2022/04/22 14:10:43;;;;;;;13.55;6.63;;;16.20;63.10;;;;;;5054505;28;20370;-48
2022/04/22 14:13:13;;;;;;;11.10;5.35;;;16.00;63.10;;;;;;5038513;28;20038;-46
2022/04/22 14:15:40;;;;;;;12.60;5.45;;;16.00;62.50;;;;;;5043078;28;20025;-46
2022/04/22 14:18:07;;;;;;;17.90;5.07;;;16.00;63.10;;;;;;5028623;28;20072;-49